Time;durP1;ratioP1;P1;durP2;ratioP2;P2;SDS_P1;SDS_P2;PMS_P1;PMS_P2;Temp;Humidity;BMP_temperature;BMP_pressure;BME280_temperature;BME280_humidity;BME280_pressure;Samples;Min_cycle;Max_cycle;Signal;HPM_P1;HPM_P2
2021/09/14 00:02:25;;;;;;;5.30;4.10;;;;;;;14.60;68.35;100993.78;4900411;28;128729;-60
2021/09/14 00:04:51;;;;;;;6.03;3.50;;;;;;;14.61;68.45;100989.97;4901473;28;99707;-61
2021/09/14 00:07:17;;;;;;;4.63;4.20;;;;;;;14.62;68.44;100993.47;4901055;28;117428;-60
2021/09/14 00:09:43;;;;;;;5.15;4.35;;;;;;;14.63;67.87;101000.53;4901321;28;125968;-60
2021/09/14 00:12:09;;;;;;;5.53;4.20;;;;;;;14.57;68.00;100994.31;4900901;28;128684;-61
2021/09/14 00:14:35;;;;;;;5.03;3.72;;;;;;;14.57;68.22;100991.63;4901082;28;123454;-61
2021/09/14 00:17:01;;;;;;;4.50;4.03;;;;;;;14.57;68.27;100998.94;4901864;28;98150;-61
2021/09/14 00:19:27;;;;;;;4.20;3.80;;;;;;;14.57;67.81;100991.63;4883435;28;98330;-61
2021/09/14 00:21:53;;;;;;;4.88;3.58;;;;;;;14.56;68.09;100991.91;4867157;28;128056;-60
2021/09/14 00:24:19;;;;;;;4.70;3.67;;;;;;;14.52;67.98;101001.69;4900778;28;126471;-60
2021/09/14 00:26:45;;;;;;;4.18;3.78;;;;;;;14.44;68.24;101003.88;4898826;28;117115;-60
2021/09/14 00:29:11;;;;;;;4.00;3.65;;;;;;;14.43;68.09;101004.16;4931877;28;127782;-61
2021/09/14 00:31:37;;;;;;;4.10;3.65;;;;;;;14.40;68.01;101004.72;4901419;28;127882;-60
2021/09/14 00:34:04;;;;;;;4.80;3.80;;;;;;;14.40;68.43;101004.72;4902003;28;98529;-61
2021/09/14 00:36:30;;;;;;;4.30;3.90;;;;;;;14.40;68.36;101000.09;4901606;28;97840;-61
2021/09/14 00:38:56;;;;;;;3.53;3.22;;;;;;;14.42;68.16;101007.94;4901328;28;127977;-61
2021/09/14 00:41:22;;;;;;;4.32;3.60;;;;;;;14.39;68.51;101000.38;4900627;28;128469;-60
2021/09/14 00:43:58;;;;;;;4.43;3.42;;;;;;;14.34;68.06;101006.63;4901685;28;97992;-60
2021/09/14 00:46:24;;;;;;;4.90;3.45;;;;;;;14.36;68.28;101009.88;4884873;28;97967;-60
2021/09/14 00:48:50;;;;;;;3.97;3.53;;;;;;;14.32;68.44;100995.25;4902375;28;98388;-60
2021/09/14 00:51:16;;;;;;;3.97;3.55;;;;;;;14.32;68.13;101006.09;4900668;28;127516;-62
2021/09/14 00:53:42;;;;;;;3.65;3.35;;;;;;;14.32;68.36;101000.69;4898675;28;127509;-60
2021/09/14 00:56:08;;;;;;;4.22;3.50;;;;;;;14.32;68.52;101008.81;4884366;28;98095;-61
2021/09/14 00:58:35;;;;;;;4.10;3.70;;;;;;;14.30;68.40;100997.44;4931996;28;127929;-61
2021/09/14 01:01:01;;;;;;;5.00;3.55;;;;;;;14.29;68.47;100995.81;4900498;28;129241;-61
2021/09/14 01:03:27;;;;;;;3.70;3.38;;;;;;;14.28;68.84;100993.41;4899093;28;127571;-60
2021/09/14 01:05:53;;;;;;;5.25;4.20;;;;;;;14.25;68.59;100992.84;4883421;28;117192;-61
2021/09/14 01:08:19;;;;;;;5.75;3.70;;;;;;;14.20;68.69;100997.50;4900946;28;126989;-62
2021/09/14 01:10:45;;;;;;;4.47;3.70;;;;;;;14.15;68.94;100987.50;4931557;28;127600;-60
2021/09/14 01:13:11;;;;;;;6.15;4.00;;;;;;;14.13;68.97;100999.69;4866465;28;127200;-60
2021/09/14 01:15:37;;;;;;;4.70;3.90;;;;;;;14.09;69.03;100994.00;4901028;28;118684;-60
2021/09/14 01:18:04;;;;;;;7.28;3.90;;;;;;;14.10;69.38;100990.22;4901718;28;98192;-60
2021/09/14 01:20:30;;;;;;;5.40;3.80;;;;;;;14.10;68.95;100984.78;4901298;28;97738;-60
2021/09/14 01:22:56;;;;;;;5.00;4.07;;;;;;;14.06;68.65;100991.84;4900627;28;97948;-61
2021/09/14 01:25:24;;;;;;;4.68;4.20;;;;;;;14.01;68.97;100991.88;4900711;28;117881;-62
2021/09/14 01:27:50;;;;;;;4.30;3.90;;;;;;;13.95;68.99;100996.53;4899629;28;98418;-60
2021/09/14 01:30:22;;;;;;;4.88;4.22;;;;;;;13.94;68.91;100994.88;4901302;28;98780;-61
2021/09/14 01:32:51;;;;;;;4.70;4.17;;;;;;;13.92;69.01;100993.56;4905466;28;97753;-60
2021/09/14 01:35:18;;;;;;;4.93;3.95;;;;;;;13.90;68.86;100990.28;4904585;28;97694;-61
2021/09/14 01:37:44;;;;;;;5.13;3.78;;;;;;;13.90;69.22;100990.28;4904255;28;98131;-61
2021/09/14 01:40:11;;;;;;;3.95;3.55;;;;;;;13.92;69.01;100991.66;4904537;28;98546;-61
2021/09/14 01:42:37;;;;;;;4.30;3.83;;;;;;;13.92;69.18;100988.13;4903434;28;99528;-60
2021/09/14 01:45:04;;;;;;;5.15;3.92;;;;;;;13.92;69.31;100997.06;4903321;28;119246;-60
2021/09/14 01:47:30;;;;;;;4.68;3.70;;;;;;;13.89;68.97;101000.31;4903126;28;117627;-61
2021/09/14 01:49:56;;;;;;;4.40;3.85;;;;;;;13.87;69.12;100994.38;4903521;28;128732;-61
2021/09/14 01:52:25;;;;;;;5.57;4.05;;;;;;;13.85;69.08;101003.88;4903835;28;126836;-61
2021/09/14 01:54:51;;;;;;;4.65;3.92;;;;;;;13.82;68.99;100999.00;4904889;28;97745;-61
2021/09/14 01:57:21;;;;;;;6.03;4.15;;;;;;;13.77;69.36;100982.75;4903737;28;98770;-60
2021/09/14 01:59:50;;;;;;;5.47;4.50;;;;;;;13.72;69.55;100995.25;4904417;28;99183;-61
2021/09/14 02:05:07;;;;;;;4.75;4.22;;;;;;;13.67;69.62;100992.53;4902537;28;97861;-60
2021/09/14 02:07:50;;;;;;;5.47;4.20;;;;;;;13.67;69.38;100992.53;4886966;28;98185;-60
2021/09/14 02:40:36;;;;;;;6.15;4.72;;;;;;;13.42;70.32;100988.00;4900918;28;97941;-61
2021/09/14 02:59:30;;;;;;;5.95;4.95;;;;;;;13.40;70.61;100975.78;4899165;28;97861;-61
2021/09/14 03:01:56;;;;;;;5.35;4.20;;;;;;;13.39;70.48;100971.47;4899978;28;126998;-60
2021/09/14 03:04:22;;;;;;;5.85;4.50;;;;;;;13.37;70.54;100969.06;4881082;28;127723;-61
2021/09/14 03:06:48;;;;;;;5.25;4.43;;;;;;;13.37;70.63;100974.47;4883168;28;98144;-61
2021/09/14 03:09:14;;;;;;;6.47;4.65;;;;;;;13.35;70.48;100971.19;4881553;28;116910;-61
2021/09/14 03:11:40;;;;;;;5.25;4.65;;;;;;;13.36;70.83;100972.00;4883168;28;98609;-61
2021/09/14 03:14:07;;;;;;;5.40;4.35;;;;;;;13.36;70.84;100961.19;4892099;28;126921;-60
2021/09/14 03:16:33;;;;;;;6.32;4.55;;;;;;;13.38;70.55;100957.13;4916521;28;128395;-61
2021/09/14 03:18:59;;;;;;;5.85;4.55;;;;;;;13.39;70.76;100958.75;4935340;28;97923;-60
2021/09/14 03:21:25;;;;;;;6.15;5.00;;;;;;;13.40;70.60;100960.38;4903443;28;98199;-60
2021/09/14 03:23:51;;;;;;;6.18;4.85;;;;;;;13.39;70.80;100953.31;4902518;28;128044;-61
2021/09/14 03:26:17;;;;;;;6.50;4.93;;;;;;;13.41;71.16;100953.88;4899855;28;110199;-60
2021/09/14 03:28:43;;;;;;;5.63;4.90;;;;;;;13.41;70.83;100942.25;4901501;28;119758;-60
2021/09/14 03:31:10;;;;;;;6.07;5.38;;;;;;;13.40;71.25;100944.13;4902975;28;101386;-61
2021/09/14 03:33:36;;;;;;;5.47;4.97;;;;;;;13.40;71.24;100944.13;4902423;28;98992;-60
2021/09/14 03:36:02;;;;;;;6.15;5.55;;;;;;;13.41;71.02;100943.03;4932400;28;126859;-59
2021/09/14 03:38:28;;;;;;;6.75;5.70;;;;;;;13.41;71.38;100947.66;4902591;28;100729;-61
2021/09/14 03:40:54;;;;;;;8.00;6.00;;;;;;;13.41;70.90;100950.38;4900445;28;122273;-61
2021/09/14 03:43:20;;;;;;;6.30;5.32;;;;;;;13.39;71.11;100945.19;4884013;28;128148;-61
2021/09/14 03:45:48;;;;;;;7.80;6.00;;;;;;;13.37;71.70;100944.69;4901775;28;127237;-60
2021/09/14 03:48:14;;;;;;;6.68;5.97;;;;;;;13.38;71.15;100943.59;4902896;28;97783;-61
2021/09/14 03:50:41;;;;;;;7.25;5.35;;;;;;;13.40;71.43;100946.00;4902386;28;97741;-60
2021/09/14 03:53:07;;;;;;;8.32;6.30;;;;;;;13.40;71.11;100944.13;4902534;28;98824;-60
2021/09/14 03:55:33;;;;;;;8.20;5.68;;;;;;;13.43;71.40;100942.75;4901282;28;126486;-61
2021/09/14 03:57:59;;;;;;;7.18;5.78;;;;;;;13.45;71.29;100937.91;4902688;28;98202;-59
2021/09/14 04:00:25;;;;;;;6.18;5.57;;;;;;;13.48;71.01;100934.66;4901531;28;127863;-61
2021/09/14 04:02:55;;;;;;;6.72;5.93;;;;;;;13.50;71.13;100938.69;4901608;28;98088;-61
2021/09/14 04:08:50;;;;;;;5.72;5.22;;;;;;;13.47;70.69;100933.81;4902343;28;97939;-61
2021/09/14 04:10:43;;;;;;;6.07;5.47;;;;;;;13.43;70.46;100934.63;4886959;28;98711;-61
2021/09/14 04:13:10;;;;;;;9.50;5.75;;;;;;;13.39;70.40;100937.06;4902324;28;98890;-59
2021/09/14 04:15:36;;;;;;;6.70;5.30;;;;;;;13.37;70.02;100933.84;4916264;28;100825;-59
2021/09/14 04:18:03;;;;;;;6.28;5.60;;;;;;;13.34;70.46;100934.41;4901388;28;99827;-61
2021/09/14 04:20:30;;;;;;;8.52;5.32;;;;;;;13.33;70.43;100929.25;4916856;28;100034;-61
2021/09/14 04:22:56;;;;;;;6.93;5.20;;;;;;;13.33;70.44;100927.38;4901901;28;115135;-61
2021/09/14 04:25:22;;;;;;;6.05;5.20;;;;;;;13.35;70.50;100925.19;4901520;28;109838;-61
2021/09/14 04:27:49;;;;;;;7.75;5.30;;;;;;;13.38;70.47;100929.25;4900875;28;118238;-60
2021/09/14 04:30:16;;;;;;;7.85;5.72;;;;;;;13.38;69.98;100926.53;4902662;28;98326;-59
2021/09/14 04:32:42;;;;;;;5.97;5.05;;;;;;;13.37;70.13;100933.84;4932661;28;99067;-61
2021/09/14 04:35:08;;;;;;;5.32;4.70;;;;;;;13.36;70.09;100932.22;4901607;28;127585;-61
2021/09/14 04:37:34;;;;;;;8.82;5.57;;;;;;;13.35;70.03;100930.59;4902158;28;97814;-61
2021/09/14 04:40:00;;;;;;;7.75;6.20;;;;;;;13.35;70.10;100937.91;4900616;28;128906;-60
2021/09/14 04:42:26;;;;;;;6.63;5.82;;;;;;;13.31;70.24;100929.53;4901012;28;98592;-61
2021/09/14 04:44:54;;;;;;;6.93;6.20;;;;;;;13.33;70.59;100932.78;4900993;28;126738;-59
2021/09/14 04:47:20;;;;;;;6.65;5.90;;;;;;;13.33;70.43;100930.06;4901641;28;98535;-61
2021/09/14 04:49:46;;;;;;;9.40;5.88;;;;;;;13.34;70.43;100933.59;4900671;28;128650;-59
2021/09/14 04:52:12;;;;;;;9.55;6.32;;;;;;;13.34;70.24;100934.41;4900819;28;128320;-61
2021/09/14 04:54:38;;;;;;;7.10;6.45;;;;;;;13.34;70.58;100933.59;4901225;28;124739;-59
2021/09/14 04:57:05;;;;;;;9.10;6.30;;;;;;;13.35;70.38;100933.31;4901216;28;97916;-61
2021/09/14 04:59:31;;;;;;;8.80;6.25;;;;;;;13.33;70.33;100934.69;4901486;28;98006;-61
2021/09/14 05:01:58;;;;;;;7.18;5.85;;;;;;;13.30;70.19;100932.50;4897881;28;128425;-60
2021/09/14 05:04:24;;;;;;;6.57;5.93;;;;;;;13.29;70.40;100937.13;4901063;28;98131;-61
2021/09/14 05:06:50;;;;;;;7.55;5.88;;;;;;;13.29;69.76;100936.31;4902264;28;117179;-59
2021/09/14 05:09:16;;;;;;;6.35;5.60;;;;;;;13.29;70.34;100939.03;4905402;28;100305;-59
2021/09/14 05:11:44;;;;;;;7.43;5.97;;;;;;;13.30;70.31;100941.44;4903863;28;105965;-61
2021/09/14 05:14:11;;;;;;;7.38;6.53;;;;;;;13.33;70.23;100937.38;4905385;28;97936;-61
2021/09/14 05:16:37;;;;;;;6.95;5.72;;;;;;;13.36;70.55;100936.81;4905170;28;99824;-60
2021/09/14 05:19:03;;;;;;;6.68;5.95;;;;;;;13.37;70.33;100931.16;4901365;28;128024;-59
2021/09/14 05:21:31;;;;;;;10.85;6.53;;;;;;;13.39;70.29;100933.56;4902788;28;98867;-60
2021/09/14 05:23:57;;;;;;;6.88;6.18;;;;;;;13.40;70.59;100932.47;4904233;28;97750;-61
2021/09/14 05:26:26;;;;;;;7.65;6.28;;;;;;;13.41;70.37;100934.91;4903754;28;117584;-61
2021/09/14 05:28:52;;;;;;;7.13;5.60;;;;;;;13.45;70.58;100919.75;4903559;28;98876;-60
2021/09/14 05:31:18;;;;;;;7.43;5.47;;;;;;;13.51;70.62;100931.38;4904027;28;126284;-60
2021/09/14 05:33:46;;;;;;;6.82;6.22;;;;;;;13.58;70.51;100925.66;4904251;28;97922;-61
2021/09/14 05:36:12;;;;;;;7.55;6.07;;;;;;;13.64;70.42;100928.09;4903004;28;97758;-61
2021/09/14 05:38:39;;;;;;;6.60;5.90;;;;;;;13.71;70.51;100927.78;4886194;28;126307;-61
2021/09/14 05:41:05;;;;;;;7.50;5.93;;;;;;;13.81;70.51;100929.66;4902363;28;105183;-60
2021/09/14 05:43:31;;;;;;;6.30;5.70;;;;;;;13.88;70.42;100939.09;4904240;28;127531;-61
2021/09/14 05:45:57;;;;;;;8.75;6.30;;;;;;;13.97;70.36;100940.13;4904410;28;97892;-60
2021/09/14 05:48:24;;;;;;;8.05;6.53;;;;;;;14.07;70.36;100943.88;4904323;28;98296;-60
2021/09/14 05:50:50;;;;;;;7.70;6.75;;;;;;;14.19;70.31;100938.94;4907002;28;111932;-60
2021/09/14 05:53:16;;;;;;;7.72;6.32;;;;;;;14.34;70.53;100941.53;4903885;28;98195;-59
2021/09/14 05:55:42;;;;;;;10.77;6.28;;;;;;;14.51;70.03;100943.94;4903779;28;118804;-60
2021/09/14 05:58:08;;;;;;;7.07;6.22;;;;;;;14.68;69.98;100938.09;4904849;28;98630;-61
2021/09/14 06:00:35;;;;;;;8.45;5.80;;;;;;;14.83;69.74;100943.41;4885649;28;99369;-60
2021/09/14 06:03:01;;;;;;;7.43;5.90;;;;;;;14.98;69.50;100937.03;4903044;28;98772;-60
2021/09/14 06:05:27;;;;;;;6.90;6.15;;;;;;;15.14;69.16;100938.50;4903625;28;111684;-60
2021/09/14 06:07:53;;;;;;;7.43;6.50;;;;;;;15.26;69.04;100932.69;4903874;28;98980;-61
2021/09/14 06:10:20;;;;;;;7.70;6.60;;;;;;;15.40;69.07;100932.81;4903893;28;128120;-60
2021/09/14 06:12:46;;;;;;;7.93;7.05;;;;;;;15.52;69.07;100938.66;4901848;28;107606;-61
2021/09/14 06:15:12;;;;;;;8.05;6.88;;;;;;;15.62;68.91;100932.31;4903297;28;118664;-60
2021/09/14 06:17:39;;;;;;;8.63;7.07;;;;;;;15.70;68.90;100932.50;4898964;28;98287;-60
2021/09/14 06:20:06;;;;;;;9.30;6.93;;;;;;;15.79;68.60;100931.84;4903315;28;97918;-60
2021/09/14 06:22:32;;;;;;;7.80;6.72;;;;;;;15.89;68.67;100934.47;4903612;28;97849;-61
2021/09/14 06:24:58;;;;;;;7.85;6.97;;;;;;;15.99;68.11;100936.22;4904173;28;104061;-61
2021/09/14 06:27:24;;;;;;;7.68;6.60;;;;;;;16.07;68.25;100936.41;4903486;28;98113;-61
2021/09/14 06:29:51;;;;;;;9.23;7.05;;;;;;;16.16;67.79;100939.28;4903355;28;108803;-60
2021/09/14 06:32:17;;;;;;;7.43;6.30;;;;;;;16.25;68.22;100936.69;4902444;28;126076;-61
2021/09/14 06:34:43;;;;;;;11.45;7.05;;;;;;;16.39;67.81;100932.94;4904868;28;98049;-60
2021/09/14 06:37:09;;;;;;;10.00;7.05;;;;;;;16.55;67.17;100932.72;4903325;28;99188;-61
2021/09/14 06:39:36;;;;;;;10.80;7.63;;;;;;;16.73;66.98;100936.50;4903170;28;128087;-61
2021/09/14 06:42:02;;;;;;;10.50;7.63;;;;;;;16.78;66.92;100939.16;4903800;28;98340;-59
2021/09/14 06:44:28;;;;;;;9.07;6.88;;;;;;;16.82;66.88;100932.84;4902910;28;109074;-61
2021/09/14 06:46:54;;;;;;;8.48;7.55;;;;;;;16.85;66.78;100934.97;4902592;28;107850;-61
2021/09/14 06:49:21;;;;;;;9.68;7.10;;;;;;;16.88;66.74;100939.81;4903547;28;98856;-59
2021/09/14 06:51:47;;;;;;;8.95;6.90;;;;;;;16.90;66.70;100945.78;4902420;28;97985;-60
2021/09/14 06:54:13;;;;;;;9.77;7.00;;;;;;;16.96;66.96;100943.78;4901619;28;118564;-61
2021/09/14 06:56:39;;;;;;;8.23;7.28;;;;;;;17.02;66.87;100947.22;4901074;28;123136;-60
2021/09/14 06:59:05;;;;;;;8.10;7.03;;;;;;;17.07;66.69;100942.50;4933779;28;111207;-61
2021/09/14 07:01:31;;;;;;;8.75;7.47;;;;;;;17.13;66.52;100948.66;4901228;28;126870;-61
2021/09/14 07:03:57;;;;;;;9.68;7.65;;;;;;;17.17;66.44;100936.88;4902961;28;97961;-61
2021/09/14 07:06:23;;;;;;;9.75;7.82;;;;;;;17.23;66.09;100940.31;4903079;28;98106;-59
2021/09/14 07:08:49;;;;;;;8.65;7.85;;;;;;;17.30;66.10;100943.44;4902655;28;114664;-61
2021/09/14 07:11:16;;;;;;;8.60;7.15;;;;;;;17.37;66.25;100946.59;4901374;28;97912;-61
2021/09/14 07:13:42;;;;;;;8.48;7.50;;;;;;;17.45;66.19;100944.25;4903204;28;98341;-61
2021/09/14 07:16:08;;;;;;;9.20;7.63;;;;;;;17.56;66.01;100945.69;4902777;28;103448;-59
2021/09/14 07:18:38;;;;;;;8.68;7.78;;;;;;;17.69;65.68;100950.34;4902052;28;126670;-60
2021/09/14 07:21:04;;;;;;;9.45;8.50;;;;;;;17.82;65.44;100948.75;4902888;28;98041;-60
2021/09/14 07:23:30;;;;;;;9.25;7.75;;;;;;;17.96;64.90;100944.09;4900939;28;107961;-61
2021/09/14 07:25:57;;;;;;;9.55;6.93;;;;;;;18.11;65.17;100941.00;4901176;28;98122;-61
2021/09/14 07:28:23;;;;;;;8.32;7.40;;;;;;;18.29;64.62;100946.66;4900289;28;128724;-61
2021/09/14 07:30:49;;;;;;;8.25;7.45;;;;;;;18.48;64.13;100949.22;4902542;28;97823;-59
2021/09/14 07:33:16;;;;;;;8.35;7.40;;;;;;;18.68;63.71;100943.28;4902562;28;97759;-60
2021/09/14 07:35:42;;;;;;;7.88;7.18;;;;;;;18.91;62.93;100944.09;4903228;28;98571;-61
2021/09/14 07:38:10;;;;;;;10.02;6.93;;;;;;;19.16;62.09;100952.75;4902348;28;98001;-62
2021/09/14 07:40:36;;;;;;;7.82;6.63;;;;;;;19.47;61.31;100963.69;4883781;28;98240;-61
2021/09/14 07:43:02;;;;;;;7.13;6.43;;;;;;;19.80;60.62;100953.22;4886745;28;98614;-60
2021/09/14 07:45:28;;;;;;;7.95;6.53;;;;;;;20.17;60.11;100953.78;4903251;28;102839;-60
2021/09/14 07:47:55;;;;;;;7.28;5.90;;;;;;;20.61;59.21;100949.16;4901366;28;116114;-60
2021/09/14 07:50:22;;;;;;;7.05;5.70;;;;;;;20.98;58.53;100950.38;4901550;28;126572;-61
2021/09/14 07:52:48;;;;;;;7.50;5.90;;;;;;;21.13;58.24;100951.81;4901728;28;98122;-60
2021/09/14 07:55:14;;;;;;;5.95;5.38;;;;;;;21.20;58.15;100958.41;4901990;28;99024;-60
2021/09/14 07:57:40;;;;;;;5.97;5.05;;;;;;;21.43;57.52;100958.19;4901195;28;126009;-60
2021/09/14 08:00:07;;;;;;;5.70;5.18;;;;;;;21.99;56.54;100956.13;4901367;28;127255;-60
2021/09/14 08:02:33;;;;;;;7.63;4.85;;;;;;;22.17;55.94;100959.59;4901426;28;100756;-59
2021/09/14 08:04:59;;;;;;;7.03;5.38;;;;;;;22.91;54.54;100955.28;4902866;28;98264;-60
2021/09/14 08:07:26;;;;;;;6.35;4.93;;;;;;;23.42;53.20;100955.84;4901706;28;99176;-61
2021/09/14 08:09:53;;;;;;;5.65;4.85;;;;;;;23.84;52.68;100961.16;4903019;28;108636;-60
2021/09/14 08:12:19;;;;;;;6.50;5.10;;;;;;;23.97;52.13;100963.56;4902362;28;98588;-60
2021/09/14 08:14:45;;;;;;;5.20;4.70;;;;;;;24.22;51.66;100958.81;4901300;28;127145;-61
2021/09/14 08:17:14;;;;;;;5.32;4.57;;;;;;;24.78;50.25;100944.28;4899953;28;127923;-60
2021/09/14 08:19:42;;;;;;;6.80;4.45;;;;;;;25.09;49.83;100953.78;4901784;28;98072;-61
2021/09/14 08:22:09;;;;;;;5.18;4.32;;;;;;;25.51;48.74;100948.56;4901630;28;97778;-61
2021/09/14 08:24:36;;;;;;;5.78;4.10;;;;;;;25.91;48.26;100953.88;4900430;28;99062;-61
2021/09/14 08:27:02;;;;;;;6.05;4.38;;;;;;;25.53;48.72;100949.00;4901816;28;99070;-60
2021/09/14 08:29:28;;;;;;;6.22;4.22;;;;;;;26.14;47.70;100955.97;4900605;28;98323;-61
2021/09/14 08:31:54;;;;;;;7.10;3.90;;;;;;;26.60;46.79;100953.41;4900796;28;118409;-60
2021/09/14 08:34:20;;;;;;;5.22;4.72;;;;;;;26.06;47.46;100945.94;4901236;28;127866;-61
2021/09/14 08:36:46;;;;;;;5.38;4.18;;;;;;;26.30;46.82;100947.63;4900426;28;128529;-61
2021/09/14 08:39:12;;;;;;;3.97;3.60;;;;;;;26.34;46.68;100937.47;4901212;28;127316;-61
2021/09/14 08:41:38;;;;;;;5.85;3.88;;;;;;;26.91;45.21;100933.84;4900103;28;117037;-62
2021/09/14 08:44:05;;;;;;;4.95;3.35;;;;;;;27.37;44.95;100939.44;4900928;28;126262;-61
2021/09/14 08:46:31;;;;;;;5.10;3.90;;;;;;;27.84;43.22;100929.91;4900967;28;102951;-60
2021/09/14 08:48:58;;;;;;;6.97;3.30;;;;;;;28.26;42.45;100939.19;4901756;28;98202;-61
2021/09/14 08:51:24;;;;;;;4.22;3.60;;;;;;;28.65;42.20;100938.88;4900181;28;97853;-60
2021/09/14 08:53:50;;;;;;;5.10;3.28;;;;;;;29.01;41.09;100929.78;4901477;28;99080;-62
2021/09/14 08:56:16;;;;;;;4.10;3.13;;;;;;;29.41;40.52;100919.03;4899462;28;126852;-61
2021/09/14 08:58:42;;;;;;;5.10;3.03;;;;;;;29.81;39.69;100918.91;4900653;28;125379;-62
2021/09/14 09:01:13;;;;;;;5.25;3.13;;;;;;;30.21;39.87;100919.94;4902235;28;98128;-61
2021/09/14 09:03:39;;;;;;;4.00;2.90;;;;;;;30.60;38.69;100921.28;4901226;28;97992;-62
2021/09/14 09:06:06;;;;;;;3.13;2.85;;;;;;;30.95;38.23;100913.03;4901545;28;98362;-61
2021/09/14 09:08:32;;;;;;;4.05;2.90;;;;;;;31.21;37.29;100916.63;4901447;28;98480;-62
2021/09/14 09:11:13;;;;;;;3.28;2.85;;;;;;;31.58;37.98;100910.66;4902519;28;98558;-61
2021/09/14 09:13:44;;;;;;;4.25;3.00;;;;;;;31.74;37.32;100911.00;4901343;28;98943;-61
2021/09/14 09:16:27;;;;;;;4.88;2.70;;;;;;;31.87;37.18;100896.69;4901927;28;98465;-60
2021/09/14 09:18:58;;;;;;;3.67;2.80;;;;;;;32.00;35.84;100897.84;4901293;28;98473;-61
2021/09/14 09:21:38;;;;;;;3.42;2.63;;;;;;;32.16;36.50;100902.97;4902317;28;97701;-61
2021/09/14 09:24:09;;;;;;;3.10;2.80;;;;;;;32.29;35.20;100897.72;4894810;28;104042;-62
2021/09/14 09:26:41;;;;;;;3.00;2.53;;;;;;;32.52;34.50;100903.59;4882072;28;98404;-60
2021/09/14 09:29:09;;;;;;;6.05;2.78;;;;;;;32.79;34.28;100903.84;4881838;28;98481;-60
2021/09/14 09:31:37;;;;;;;4.57;2.67;;;;;;;33.08;33.57;100898.84;4881945;28;98103;-61
2021/09/14 09:34:08;;;;;;;3.08;2.42;;;;;;;33.52;33.85;100902.06;4881689;28;110910;-61
2021/09/14 09:36:37;;;;;;;3.10;2.63;;;;;;;33.89;32.30;100904.88;4892162;28;118298;-62
2021/09/14 09:39:06;;;;;;;3.78;2.75;;;;;;;34.23;31.72;100897.69;4899805;28;98036;-61
2021/09/14 09:41:38;;;;;;;2.60;2.40;;;;;;;34.65;32.01;100904.75;4899436;28;98946;-61
2021/09/14 09:44:12;;;;;;;4.40;2.88;;;;;;;35.19;31.74;100901.13;4900934;28;98439;-61
2021/09/14 09:46:38;;;;;;;6.28;2.90;;;;;;;35.58;29.82;100901.25;4898498;28;126663;-63
2021/09/14 09:49:06;;;;;;;2.95;2.45;;;;;;;35.97;29.34;100896.88;4900695;28;113640;-62
2021/09/14 09:51:33;;;;;;;3.00;2.67;;;;;;;36.35;29.07;100904.91;4903015;28;98156;-63
2021/09/14 09:54:00;;;;;;;3.35;2.45;;;;;;;36.73;28.76;100896.84;4905259;28;98291;-61
2021/09/14 09:56:26;;;;;;;5.50;3.00;;;;;;;37.23;27.68;100890.03;4903886;28;116181;-61
2021/09/14 09:58:52;;;;;;;3.45;2.45;;;;;;;37.71;26.73;100885.53;4917672;28;127152;-63
2021/09/14 10:01:23;;;;;;;3.35;2.50;;;;;;;37.93;27.03;100873.72;4935083;28;97862;-61
2021/09/14 10:04:15;;;;;;;2.58;2.10;;;;;;;38.37;27.51;100871.22;4902784;28;98491;-61
2021/09/14 10:06:46;;;;;;;5.88;2.47;;;;;;;38.53;26.46;100871.88;4902301;28;98696;-63
2021/09/14 10:09:12;;;;;;;3.03;2.22;;;;;;;38.78;26.18;100864.66;4902239;28;98632;-63
2021/09/14 10:11:38;;;;;;;2.60;2.38;;;;;;;39.08;25.35;100865.31;4901484;28;116582;-61
2021/09/14 10:14:16;;;;;;;3.45;2.45;;;;;;;39.50;25.34;100860.22;4887051;28;98374;-63
2021/09/14 10:16:47;;;;;;;5.20;2.50;;;;;;;39.47;24.58;100855.50;4902833;28;126832;-63
2021/09/14 10:19:14;;;;;;;2.65;2.45;;;;;;;39.64;24.57;100859.69;4904940;28;98528;-61
2021/09/14 10:22:06;;;;;;;3.45;2.80;;;;;;;39.86;24.90;100854.09;4903997;28;97945;-63
2021/09/14 10:24:33;;;;;;;4.43;2.45;;;;;;;39.84;24.15;100845.28;4904021;28;98687;-61
2021/09/14 10:27:13;;;;;;;3.28;2.50;;;;;;;40.12;24.91;100843.41;4903563;28;98935;-63
2021/09/14 10:29:40;;;;;;;6.35;2.75;;;;;;;39.89;24.12;100850.34;4903652;28;98968;-63
2021/09/14 10:32:11;;;;;;;3.85;2.85;;;;;;;39.83;24.34;100838.06;4902013;28;107468;-63
2021/09/14 10:34:42;;;;;;;3.83;2.72;;;;;;;39.76;24.30;100846.81;4904308;28;98246;-63
2021/09/14 10:37:10;;;;;;;6.30;2.60;;;;;;;39.73;24.18;100842.88;4904094;28;99012;-61
2021/09/14 10:39:43;;;;;;;3.65;2.70;;;;;;;39.96;24.13;100847.22;4903274;28;100801;-63
2021/09/14 10:42:13;;;;;;;3.85;2.30;;;;;;;39.87;24.18;100838.72;4904328;28;97718;-63
2021/09/14 10:44:40;;;;;;;4.00;2.50;;;;;;;39.77;23.69;100842.72;4904199;28;98854;-61
2021/09/14 10:47:20;;;;;;;3.83;2.50;;;;;;;39.86;23.99;100833.56;4901037;28;98001;-63
2021/09/14 10:49:57;;;;;;;2.70;2.50;;;;;;;39.39;23.72;100826.78;4903599;28;98304;-61
2021/09/14 10:52:38;;;;;;;3.05;2.38;;;;;;;39.10;24.76;100818.53;4902904;28;97911;-61
2021/09/14 10:55:16;;;;;;;3.65;2.38;;;;;;;38.81;24.85;100832.03;4903922;28;98234;-63
2021/09/14 10:57:50;;;;;;;4.25;2.60;;;;;;;38.37;25.02;100818.53;4902412;28;118878;-61
2021/09/14 11:00:18;;;;;;;3.83;2.78;;;;;;;38.12;25.10;100813.66;4903033;28;97810;-64
2021/09/14 11:02:55;;;;;;;4.32;2.60;;;;;;;38.03;25.87;100819.16;4903282;28;98457;-63
2021/09/14 11:05:25;;;;;;;2.72;2.40;;;;;;;38.07;25.10;100815.00;4902891;28;97792;-64
2021/09/14 11:08:13;;;;;;;3.55;2.65;;;;;;;38.31;25.41;100809.84;4870194;28;115682;-63
2021/09/14 11:10:45;;;;;;;3.75;2.60;;;;;;;38.38;24.41;100808.84;4884874;28;127929;-63
2021/09/14 11:13:20;;;;;;;3.92;2.83;;;;;;;38.68;24.95;100806.69;4903431;28;98098;-63
2021/09/14 11:15:46;;;;;;;4.47;2.80;;;;;;;38.50;24.66;100810.09;4901356;28;98503;-61
2021/09/14 11:18:12;;;;;;;3.72;2.83;;;;;;;38.29;24.70;100805.91;4901321;28;98260;-61
2021/09/14 11:20:38;;;;;;;2.88;2.60;;;;;;;38.11;25.14;100803.66;4899799;28;127953;-63
2021/09/14 11:23:05;;;;;;;3.30;2.88;;;;;;;38.10;24.63;100798.47;4903612;28;97957;-63
2021/09/14 11:25:31;;;;;;;3.30;2.85;;;;;;;38.13;25.35;100808.84;4902349;28;98914;-64
2021/09/14 11:28:07;;;;;;;4.40;2.45;;;;;;;37.98;25.43;100794.41;4902555;28;98141;-61
2021/09/14 11:30:35;;;;;;;3.33;2.50;;;;;;;37.81;25.58;100796.53;4900941;28;97888;-61
2021/09/14 11:33:02;;;;;;;3.33;2.80;;;;;;;37.72;25.30;100788.72;4902596;28;97811;-61
2021/09/14 11:35:29;;;;;;;3.05;2.72;;;;;;;37.57;25.31;100788.38;4902579;28;116309;-61
2021/09/14 11:38:01;;;;;;;4.03;2.50;;;;;;;37.49;25.29;100783.38;4902200;28;99149;-61
2021/09/14 11:40:28;;;;;;;3.70;2.63;;;;;;;37.39;25.39;100778.84;4902342;28;97961;-61
2021/09/14 11:42:58;;;;;;;5.10;2.80;;;;;;;37.28;25.44;100776.31;4903050;28;97886;-61
2021/09/14 11:45:26;;;;;;;3.45;2.85;;;;;;;37.11;25.98;100767.16;4903311;28;98523;-61
2021/09/14 11:47:53;;;;;;;3.53;2.85;;;;;;;37.01;26.03;100771.81;4902154;28;117334;-63
2021/09/14 11:50:29;;;;;;;3.88;3.00;;;;;;;36.81;26.32;100766.31;4903697;28;103543;-63
2021/09/14 11:53:11;;;;;;;5.13;2.90;;;;;;;36.46;26.81;100768.00;4902650;28;97875;-62
2021/09/14 11:55:42;;;;;;;4.82;2.92;;;;;;;36.02;27.31;100763.81;4883349;28;99095;-63
2021/09/14 11:58:08;;;;;;;5.53;3.47;;;;;;;35.77;26.68;100761.56;4883583;28;99262;-63
2021/09/14 12:00:46;;;;;;;3.95;3.13;;;;;;;35.54;27.48;100759.63;4882368;28;98132;-61
2021/09/14 12:03:18;;;;;;;5.30;3.28;;;;;;;35.44;27.41;100764.19;4882380;28;109915;-61
2021/09/14 12:05:57;;;;;;;3.55;3.08;;;;;;;35.34;28.40;100763.19;4883056;28;98386;-63
2021/09/14 12:08:40;;;;;;;4.82;3.47;;;;;;;35.20;28.11;100757.88;4882760;28;124921;-61
2021/09/14 12:11:06;;;;;;;3.40;3.10;;;;;;;35.15;28.39;100761.97;4881139;28;97912;-61
2021/09/14 12:13:38;;;;;;;3.85;3.17;;;;;;;35.09;28.58;100757.28;4883779;28;97966;-63
2021/09/14 12:16:14;;;;;;;4.03;3.65;;;;;;;34.94;28.20;100748.34;4897311;28;98625;-63
2021/09/14 12:18:42;;;;;;;4.35;3.30;;;;;;;34.82;28.50;100758.16;4902016;28;99015;-61